Time;durP1;ratioP1;P1;durP2;ratioP2;P2;SDS_P1;SDS_P2;PMS_P1;PMS_P2;Temp;Humidity;BMP_temperature;BMP_pressure;BME280_temperature;BME280_humidity;BME280_pressure;Samples;Min_cycle;Max_cycle;Signal;HPM_P1;HPM_P2
2021/10/22 00:01:44;;;;;;;9.17;4.47;;;;;;;15.70;60.33;100962.72;4989534;28;20164;-70
2021/10/22 00:04:11;;;;;;;5.73;3.10;;;;;;;15.62;60.48;100952.94;4987186;28;20362;-75
2021/10/22 00:06:37;;;;;;;7.90;3.33;;;;;;;15.62;60.56;100952.94;4991510;28;20133;-77
2021/10/22 00:09:09;;;;;;;12.67;3.37;;;;;;;15.67;60.64;100966.16;4985305;28;20060;-68
2021/10/22 00:11:43;;;;;;;10.93;3.77;;;;;;;15.58;60.62;100951.88;4984847;28;20046;-67
2021/10/22 00:14:11;;;;;;;8.57;3.67;;;;;;;15.60;60.68;100952.44;4989915;28;20129;-64
2021/10/22 00:16:37;;;;;;;7.13;2.77;;;;;;;15.59;60.65;100959.22;4984387;28;20499;-69
2021/10/22 00:19:04;;;;;;;12.43;2.73;;;;;;;15.43;60.50;100946.50;4991450;28;20053;-68
2021/10/22 00:21:32;;;;;;;9.93;3.20;;;;;;;15.43;60.66;100955.75;4987947;28;20169;-65
2021/10/22 00:23:59;;;;;;;10.03;3.73;;;;;;;15.21;60.80;100918.94;4987385;28;20081;-65
2021/10/22 00:26:25;;;;;;;5.97;3.10;;;;;;;15.36;60.94;100944.88;4989681;28;20414;-65
2021/10/22 00:28:53;;;;;;;9.10;3.17;;;;;;;15.37;61.35;100949.38;4988434;28;20046;-63
2021/10/22 00:31:20;;;;;;;8.07;2.23;;;;;;;15.34;61.25;100940.69;4993770;28;20042;-64
2021/10/22 00:33:47;;;;;;;14.43;3.87;;;;;;;15.21;61.13;100925.38;4990876;28;20109;-73
2021/10/22 00:36:14;;;;;;;11.30;2.63;;;;;;;15.28;61.35;100934.31;4979190;28;20142;-73
2021/10/22 00:38:41;;;;;;;6.80;3.17;;;;;;;15.26;61.18;100939.41;4991921;28;20149;-74
2021/10/22 00:41:15;;;;;;;5.23;2.80;;;;;;;15.19;61.23;100932.47;4992713;28;20057;-72
2021/10/22 00:43:42;;;;;;;6.80;2.83;;;;;;;15.16;61.37;100939.53;4990102;28;20133;-73
2021/10/22 00:46:09;;;;;;;8.43;2.97;;;;;;;14.91;61.45;100904.16;4988691;28;20118;-62
2021/10/22 00:48:37;;;;;;;5.40;2.73;;;;;;;15.08;61.63;100938.25;4989349;28;20046;-60
2021/10/22 00:51:07;;;;;;;6.57;2.50;;;;;;;15.06;61.52;100928.41;4991927;28;20053;-63
2021/10/22 00:53:37;;;;;;;11.20;3.38;;;;;;;15.04;61.82;100937.19;4989056;28;20074;-60
2021/10/22 00:56:06;;;;;;;6.07;2.20;;;;;;;14.81;61.78;100885.44;4985894;28;20438;-62
2021/10/22 00:58:35;;;;;;;9.80;2.97;;;;;;;14.98;61.88;100904.63;4986146;28;20688;-66
2021/10/22 01:01:03;;;;;;;6.13;2.80;;;;;;;15.11;62.07;100925.53;4992311;28;20398;-63
2021/10/22 01:03:31;;;;;;;11.47;3.17;;;;;;;15.12;61.86;100921.59;4983285;28;20705;-62
2021/10/22 01:06:01;;;;;;;8.27;2.57;;;;;;;15.09;61.83;100910.94;4976891;28;20557;-64
2021/10/22 01:08:33;;;;;;;8.32;2.53;;;;;;;15.10;61.84;100905.00;4979478;28;20073;-64
2021/10/22 01:11:01;;;;;;;4.87;2.50;;;;;;;15.01;61.83;100880.66;4988741;28;20043;-62
2021/10/22 01:13:29;;;;;;;10.80;5.00;;;;;;;15.13;61.90;100903.56;4997736;28;20129;-63
2021/10/22 01:15:56;;;;;;;5.47;3.20;;;;;;;15.06;61.95;100908.75;4991099;28;20129;-63
2021/10/22 01:18:27;;;;;;;7.43;3.33;;;;;;;15.03;61.91;100912.97;4973938;28;20510;-63
2021/10/22 01:21:05;;;;;;;5.90;3.17;;;;;;;14.95;61.78;100910.03;4985703;28;20080;-63
2021/10/22 01:23:33;;;;;;;8.53;3.20;;;;;;;14.88;62.07;100894.34;4989166;28;20056;-64
2021/10/22 01:26:00;;;;;;;9.17;2.97;;;;;;;14.91;62.00;100906.97;4989159;28;20130;-62
2021/10/22 01:28:27;;;;;;;11.60;3.40;;;;;;;14.89;62.20;100917.69;4989428;28;20088;-63
2021/10/22 01:30:56;;;;;;;9.20;3.03;;;;;;;14.78;62.27;100910.50;4984057;28;20073;-64
2021/10/22 01:33:23;;;;;;;8.00;3.20;;;;;;;14.69;62.25;100918.75;4974076;28;20135;-66
2021/10/22 01:35:51;;;;;;;8.30;3.50;;;;;;;14.54;62.47;100925.41;4984103;28;20104;-64
2021/10/22 01:38:21;;;;;;;12.67;3.87;;;;;;;14.42;62.87;100924.94;4985634;28;20049;-65
2021/10/22 01:40:53;;;;;;;9.05;3.38;;;;;;;14.36;63.00;100929.78;4986600;28;20047;-66
2021/10/22 01:43:21;;;;;;;8.87;3.20;;;;;;;14.38;62.82;100918.22;4986358;28;20121;-65
2021/10/22 01:45:49;;;;;;;8.87;3.20;;;;;;;14.41;62.95;100918.47;4977714;28;20094;-65
2021/10/22 01:48:16;;;;;;;7.63;2.83;;;;;;;14.37;63.02;100911.78;4981374;28;20125;-62
2021/10/22 01:50:43;;;;;;;10.13;2.90;;;;;;;14.50;62.76;100918.72;4986715;28;20264;-63
2021/10/22 01:53:13;;;;;;;15.43;3.60;;;;;;;14.50;62.98;100910.28;4988385;28;20125;-64
2021/10/22 01:55:41;;;;;;;8.40;3.38;;;;;;;14.46;62.96;100897.91;4984477;28;20133;-63
2021/10/22 01:58:08;;;;;;;11.60;3.67;;;;;;;14.52;62.99;100918.41;4980572;28;20121;-62
2021/10/22 02:00:35;;;;;;;8.20;3.03;;;;;;;14.40;63.05;100891.53;4986894;28;20585;-61
2021/10/22 02:03:03;;;;;;;8.77;3.63;;;;;;;14.50;62.86;100910.28;4990890;28;20402;-60
2021/10/22 02:05:31;;;;;;;9.70;3.30;;;;;;;14.53;62.78;100908.81;4979955;28;20407;-59
2021/10/22 02:07:58;;;;;;;8.77;3.43;;;;;;;14.58;62.95;100914.41;4991034;28;20125;-59
2021/10/22 02:10:25;;;;;;;6.67;3.33;;;;;;;14.57;62.91;100902.31;4989184;28;20554;-61
2021/10/22 02:12:55;;;;;;;9.75;4.28;;;;;;;14.51;62.97;100911.09;4988152;28;20046;-61
2021/10/22 02:15:22;;;;;;;11.73;3.43;;;;;;;14.51;63.14;100900.69;4987669;28;20058;-62
2021/10/22 02:17:49;;;;;;;7.00;3.63;;;;;;;14.43;63.37;100878.84;4989480;28;20494;-61
2021/10/22 02:20:16;;;;;;;9.20;3.03;;;;;;;14.50;63.28;100892.56;4986420;28;20145;-61
2021/10/22 02:22:43;;;;;;;6.20;3.27;;;;;;;14.52;63.46;100895.91;4984141;28;20134;-63
2021/10/22 02:25:10;;;;;;;9.07;3.63;;;;;;;14.50;63.44;100885.00;4985824;28;20104;-64
2021/10/22 02:27:37;;;;;;;10.83;2.90;;;;;;;14.59;63.60;100896.38;4986167;28;20482;-64
2021/10/22 02:30:18;;;;;;;16.70;3.83;;;;;;;14.63;63.23;100875.84;4985604;28;20054;-66
2021/10/22 02:32:45;;;;;;;8.23;2.97;;;;;;;14.40;63.19;100832.53;4989722;28;20502;-64
2021/10/22 02:35:12;;;;;;;3.60;2.60;;;;;;;14.74;62.87;100887.78;4989384;28;20074;-63
2021/10/22 02:37:42;;;;;;;6.10;2.80;;;;;;;14.42;62.81;100851.88;4981755;28;20133;-62
2021/10/22 02:40:10;;;;;;;10.90;3.43;;;;;;;14.64;62.96;100871.06;4987946;28;20046;-63
2021/10/22 02:42:37;;;;;;;8.93;2.87;;;;;;;14.53;63.29;100861.91;4983595;28;20129;-68
2021/10/22 02:45:05;;;;;;;10.23;3.40;;;;;;;14.63;63.07;100873.03;4985767;28;20133;-67
2021/10/22 02:47:32;;;;;;;8.07;2.97;;;;;;;14.52;62.76;100862.19;4977767;28;20105;-68
2021/10/22 02:49:59;;;;;;;9.73;3.00;;;;;;;14.50;62.80;100870.06;4973205;28;20130;-67
2021/10/22 02:52:26;;;;;;;9.77;3.23;;;;;;;14.46;63.06;100873.47;4982255;28;20145;-66
2021/10/22 02:54:53;;;;;;;11.77;3.70;;;;;;;14.39;62.97;100858.09;4992842;28;20475;-67
2021/10/22 02:57:20;;;;;;;11.90;3.50;;;;;;;14.37;63.16;100849.97;4988999;28;20129;-68
2021/10/22 02:59:46;;;;;;;5.93;3.10;;;;;;;14.44;63.09;100860.84;4992119;28;20082;-68
2021/10/22 03:02:13;;;;;;;11.97;3.30;;;;;;;14.14;63.03;100825.50;4989517;28;20054;-69
2021/10/22 03:04:40;;;;;;;7.03;3.27;;;;;;;14.33;63.33;100857.34;4987464;28;20051;-69
2021/10/22 03:07:07;;;;;;;8.80;4.10;;;;;;;14.27;63.45;100841.66;4987198;28;20077;-69
2021/10/22 03:09:35;;;;;;;10.63;3.10;;;;;;;14.40;63.57;100855.00;4990426;28;20515;-68
2021/10/22 03:12:03;;;;;;;7.17;2.83;;;;;;;14.35;63.29;100838.19;4989134;28;20057;-71
2021/10/22 03:14:29;;;;;;;8.17;3.93;;;;;;;14.36;63.70;100859.53;4989988;28;20133;-69
2021/10/22 03:16:56;;;;;;;6.73;3.13;;;;;;;14.37;63.53;100855.59;4987965;28;20042;-66
2021/10/22 03:19:23;;;;;;;7.80;3.40;;;;;;;14.36;63.46;100856.75;4984918;28;20046;-64
2021/10/22 03:21:50;;;;;;;4.93;2.60;;;;;;;14.37;63.44;100861.22;4988319;28;20145;-68
2021/10/22 03:24:17;;;;;;;6.63;3.03;;;;;;;14.35;63.17;100862.63;4990556;28;20442;-68
2021/10/22 03:26:44;;;;;;;11.33;3.43;;;;;;;14.31;62.94;100868.00;4985139;28;20157;-64
2021/10/22 03:29:11;;;;;;;12.13;3.57;;;;;;;14.20;63.12;100855.22;4993060;28;20047;-68
2021/10/22 03:31:38;;;;;;;8.70;3.63;;;;;;;14.19;63.54;100859.19;4981167;28;20082;-65
2021/10/22 03:34:04;;;;;;;8.20;3.17;;;;;;;14.10;63.57;100850.56;4990971;28;20119;-65
2021/10/22 03:36:34;;;;;;;9.37;4.00;;;;;;;13.92;63.53;100831.66;4984072;28;20526;-65
2021/10/22 03:39:03;;;;;;;6.90;3.35;;;;;;;14.04;63.57;100850.91;4987396;28;20453;-65
2021/10/22 03:41:29;;;;;;;10.07;3.83;;;;;;;13.93;63.52;100851.00;4991862;28;20129;-66
2021/10/22 03:43:56;;;;;;;11.27;4.30;;;;;;;13.92;63.48;100854.94;4983684;28;20133;-66
2021/10/22 03:46:23;;;;;;;8.77;4.50;;;;;;;13.88;63.48;100865.09;4981605;28;20130;-67
2021/10/22 03:48:50;;;;;;;7.90;3.77;;;;;;;13.86;63.50;100860.91;4989430;28;20130;-67
2021/10/22 03:51:18;;;;;;;11.90;5.27;;;;;;;13.81;63.65;100864.63;4980116;28;20121;-67
2021/10/22 03:53:45;;;;;;;11.57;4.90;;;;;;;13.84;63.79;100864.00;4984799;28;20509;-67
2021/10/22 03:56:11;;;;;;;8.90;3.87;;;;;;;13.84;63.67;100858.38;4984742;28;20126;-67
2021/10/22 03:58:38;;;;;;;6.27;3.47;;;;;;;13.59;63.74;100822.13;4983701;28;20094;-70
2021/10/22 04:01:05;;;;;;;10.57;4.70;;;;;;;13.71;63.69;100842.25;4980841;28;20134;-70
2021/10/22 04:03:32;;;;;;;11.77;4.37;;;;;;;13.78;63.85;100862.38;4992220;28;20153;-71
2021/10/22 04:05:59;;;;;;;8.97;3.93;;;;;;;13.77;63.87;100865.47;4983827;28;20090;-70
2021/10/22 04:08:26;;;;;;;9.30;3.37;;;;;;;13.74;64.21;100864.94;4989520;28;20535;-71
2021/10/22 04:10:54;;;;;;;12.77;4.00;;;;;;;13.63;64.17;100851.28;4980467;28;20077;-71
2021/10/22 04:13:21;;;;;;;6.80;3.70;;;;;;;13.71;64.18;100859.09;4984497;28;20073;-72
2021/10/22 04:15:48;;;;;;;8.60;2.87;;;;;;;13.73;64.41;100863.25;4982340;28;20054;-70
2021/10/22 04:18:15;;;;;;;8.03;3.03;;;;;;;13.75;64.29;100868.59;4988713;28;20046;-71
2021/10/22 04:20:42;;;;;;;6.33;3.53;;;;;;;13.78;64.57;100865.19;4976697;28;20153;-67
2021/10/22 04:23:10;;;;;;;8.17;2.63;;;;;;;13.51;64.51;100813.22;4988001;28;20126;-63
2021/10/22 04:25:37;;;;;;;5.67;2.90;;;;;;;13.81;64.53;100859.00;4987912;28;20388;-61
2021/10/22 04:28:08;;;;;;;6.00;3.23;;;;;;;13.74;64.51;100847.25;4983446;28;20047;-62
2021/10/22 04:30:36;;;;;;;9.20;3.17;;;;;;;13.80;64.44;100848.88;4986035;28;20074;-64
2021/10/22 04:33:03;;;;;;;4.47;3.03;;;;;;;13.89;64.38;100871.56;4990326;28;20473;-64
2021/10/22 04:35:31;;;;;;;9.27;2.80;;;;;;;13.91;64.38;100872.06;4990304;28;20089;-64
2021/10/22 04:40:33;;;;;;;6.03;2.70;;;;;;;13.97;64.13;100870.91;4986250;28;20558;-64
2021/10/22 04:43:15;;;;;;;6.93;3.00;;;;;;;13.68;64.15;100831.59;4983748;28;20047;-63
2021/10/22 04:45:43;;;;;;;8.87;3.37;;;;;;;13.64;64.09;100824.88;4988984;28;20208;-63
2021/10/22 04:48:12;;;;;;;4.70;2.87;;;;;;;13.89;64.20;100872.38;4980697;28;20415;-63
2021/10/22 04:50:46;;;;;;;6.23;2.70;;;;;;;13.82;64.12;100854.22;4984350;28;20077;-63
2021/10/22 04:53:13;;;;;;;7.30;3.33;;;;;;;13.90;64.17;100873.22;4987243;28;20089;-66
2021/10/22 04:55:40;;;;;;;10.73;3.57;;;;;;;13.87;64.24;100869.03;4983228;28;20085;-66
2021/10/22 04:58:08;;;;;;;7.73;3.43;;;;;;;13.83;64.26;100879.16;4987609;28;20129;-66
2021/10/22 05:00:55;;;;;;;7.57;2.77;;;;;;;13.83;64.36;100881.97;4981715;28;20046;-70
2021/10/22 05:03:22;;;;;;;9.03;3.37;;;;;;;13.83;64.33;100890.41;4987352;28;20046;-69
2021/10/22 05:05:49;;;;;;;9.17;2.90;;;;;;;13.71;64.27;100868.34;4984437;28;20046;-69
2021/10/22 05:08:16;;;;;;;8.00;3.17;;;;;;;13.80;64.32;100885.38;4979581;28;20130;-67
2021/10/22 05:10:43;;;;;;;12.13;2.57;;;;;;;13.81;64.12;100887.06;4982698;28;20400;-67
2021/10/22 05:13:10;;;;;;;10.87;3.20;;;;;;;13.84;64.30;100877.19;4989807;28;20162;-68
2021/10/22 05:15:37;;;;;;;7.60;3.30;;;;;;;13.85;64.34;100893.75;4986413;28;20550;-68
2021/10/22 05:18:04;;;;;;;9.93;2.47;;;;;;;13.77;64.44;100885.13;4981331;28;20447;-70
2021/10/22 05:20:31;;;;;;;5.33;2.40;;;;;;;13.84;64.17;100885.63;4984473;28;20494;-77
2021/10/22 05:22:58;;;;;;;6.63;2.87;;;;;;;13.76;64.03;100889.91;4986964;28;20062;-73
2021/10/22 05:25:25;;;;;;;9.93;3.43;;;;;;;13.79;64.20;100886.50;4989499;28;20148;-72
2021/10/22 05:27:52;;;;;;;7.80;3.43;;;;;;;13.05;64.20;100776.25;4986816;28;20129;-73
2021/10/22 05:30:19;;;;;;;7.23;2.80;;;;;;;13.78;64.17;100881.19;4986892;28;20088;-66
2021/10/22 05:32:46;;;;;;;5.07;2.90;;;;;;;13.75;64.30;100889.06;4985559;28;20129;-65
2021/10/22 05:35:13;;;;;;;7.37;2.57;;;;;;;13.80;64.34;100895.75;4986745;28;20074;-61
2021/10/22 05:37:40;;;;;;;9.93;3.03;;;;;;;13.84;64.27;100894.88;4986763;28;20226;-60
2021/10/22 05:40:08;;;;;;;13.47;3.70;;;;;;;13.87;64.25;100896.25;4987959;28;20494;-66
2021/10/22 05:42:36;;;;;;;8.43;3.17;;;;;;;13.84;64.25;100897.69;4979629;28;20078;-68
2021/10/22 05:45:05;;;;;;;8.23;2.70;;;;;;;13.71;64.27;100875.94;4979116;28;20129;-64
2021/10/22 05:47:32;;;;;;;12.23;3.60;;;;;;;13.81;64.15;100897.44;4985342;28;20078;-61
2021/10/22 05:49:59;;;;;;;6.07;3.03;;;;;;;13.69;64.34;100873.41;4982639;28;20070;-63
2021/10/22 05:52:26;;;;;;;7.73;2.57;;;;;;;13.75;64.15;100882.63;4984226;28;20070;-60
2021/10/22 05:54:52;;;;;;;9.37;3.10;;;;;;;13.73;64.23;100880.09;4977555;28;20137;-63
2021/10/22 05:57:19;;;;;;;7.57;2.60;;;;;;;13.70;64.09;100880.69;4989095;28;20129;-60
2021/10/22 05:59:46;;;;;;;9.60;3.27;;;;;;;13.78;64.16;100898.00;4988256;28;20242;-61
2021/10/22 06:02:15;;;;;;;8.37;2.87;;;;;;;13.73;64.03;100891.31;4982354;28;20051;-63
2021/10/22 06:04:42;;;;;;;8.83;3.00;;;;;;;13.68;63.89;100902.59;4978192;28;20054;-64
2021/10/22 06:07:10;;;;;;;5.60;2.90;;;;;;;13.60;63.93;100893.97;4989876;28;20061;-63
2021/10/22 06:09:37;;;;;;;7.30;3.00;;;;;;;13.59;64.02;100907.16;4988203;28;20058;-63
2021/10/22 06:12:04;;;;;;;8.63;2.97;;;;;;;13.56;64.16;100901.28;4983152;28;20046;-63
2021/10/22 06:14:31;;;;;;;10.37;3.30;;;;;;;13.46;64.05;100894.63;4975540;28;20512;-63
2021/10/22 06:16:58;;;;;;;7.80;2.97;;;;;;;13.51;64.25;100907.78;4984923;28;20129;-63
2021/10/22 06:19:28;;;;;;;7.13;2.30;;;;;;;13.43;64.21;100902.78;4980923;28;20450;-63
2021/10/22 06:22:09;;;;;;;8.70;2.90;;;;;;;13.47;64.17;100921.56;4974729;28;20054;-63
2021/10/22 06:24:38;;;;;;;6.17;2.77;;;;;;;13.43;64.12;100911.19;4988137;28;20073;-63
2021/10/22 06:27:05;;;;;;;10.67;4.17;;;;;;;13.25;64.07;100884.69;4982836;28;20074;-62
2021/10/22 06:29:33;;;;;;;11.40;3.93;;;;;;;13.37;64.36;100910.41;4983803;28;20085;-64
2021/10/22 06:32:02;;;;;;;9.13;4.07;;;;;;;13.38;64.29;100911.25;4981820;28;20055;-63
2021/10/22 06:34:29;;;;;;;12.73;4.73;;;;;;;13.39;64.26;100913.75;4984410;28;20142;-68
2021/10/22 06:36:56;;;;;;;16.70;6.00;;;;;;;13.44;64.33;100915.69;4986081;28;20133;-64
2021/10/22 06:39:23;;;;;;;12.63;4.30;;;;;;;13.42;64.50;100918.78;4992832;28;20073;-64
2021/10/22 06:41:50;;;;;;;7.00;3.80;;;;;;;13.35;64.14;100923.88;4991930;28;20077;-63
2021/10/22 06:44:18;;;;;;;10.87;4.20;;;;;;;13.27;64.06;100921.69;4985402;28;20050;-64
2021/10/22 06:46:45;;;;;;;12.30;5.60;;;;;;;13.20;64.18;100923.94;4984635;28;20062;-61
2021/10/22 06:49:13;;;;;;;10.57;4.10;;;;;;;13.16;64.43;100914.41;4985538;28;20051;-63
2021/10/22 06:51:40;;;;;;;11.97;5.23;;;;;;;12.96;64.50;100904.16;4993745;28;20073;-62
2021/10/22 06:54:08;;;;;;;8.37;4.60;;;;;;;13.07;64.39;100928.22;4988717;28;20387;-62
2021/10/22 06:56:35;;;;;;;15.80;5.87;;;;;;;13.04;64.39;100929.63;4982867;28;20055;-62
2021/10/22 06:59:02;;;;;;;10.17;5.50;;;;;;;12.99;64.32;100931.59;4989916;28;20050;-62
2021/10/22 07:01:29;;;;;;;12.23;4.97;;;;;;;12.94;64.18;100929.66;4992726;28;20416;-63
2021/10/22 07:03:57;;;;;;;14.77;7.17;;;;;;;12.89;64.48;100935.31;4994982;28;20057;-62
2021/10/22 07:09:09;;;;;;;44.80;13.77;;;;;;;12.84;64.67;100946.53;4986505;28;20050;-62
2021/10/22 07:11:37;;;;;;;14.97;5.60;;;;;;;12.76;64.87;100944.34;4986863;28;20133;-61
2021/10/22 07:14:07;;;;;;;10.77;5.87;;;;;;;12.89;64.90;100954.94;4985570;28;20054;-63
2021/10/22 07:16:37;;;;;;;;;;;;;;;12.85;64.65;100948.19;4976724;28;20105;-63
2021/10/22 07:19:04;;;;;;;12.68;5.50;;;;;;;12.87;64.69;100945.97;4977562;28;19949;-63
2021/10/22 07:21:33;;;;;;;12.80;5.13;;;;;;;12.91;64.88;100951.84;4984315;28;20478;-63
2021/10/22 07:24:05;;;;;;;11.70;5.53;;;;;;;13.00;64.82;100950.97;4990270;28;20077;-63
2021/10/22 07:26:32;;;;;;;15.63;5.70;;;;;;;13.12;64.76;100955.38;4978769;28;20499;-63
2021/10/22 07:28:59;;;;;;;15.77;5.73;;;;;;;13.13;64.77;100932.69;4984085;28;20167;-62
2021/10/22 07:31:26;;;;;;;12.43;5.73;;;;;;;13.33;65.36;100937.34;4985052;28;20133;-63
2021/10/22 07:33:53;;;;;;;10.60;4.80;;;;;;;13.66;65.45;100968.56;4989987;28;20525;-63
2021/10/22 07:36:23;;;;;;;9.37;5.70;;;;;;;13.90;65.45;100968.66;4989109;28;20050;-63
2021/10/22 07:39:04;;;;;;;11.18;6.00;;;;;;;14.01;65.27;100953.41;4990527;28;20061;-63
2021/10/22 07:41:31;;;;;;;12.57;5.27;;;;;;;14.24;64.82;100974.28;4988754;28;20131;-63
2021/10/22 07:43:58;;;;;;;12.33;4.43;;;;;;;14.41;64.73;100982.28;4989115;28;20046;-64
2021/10/22 07:46:24;;;;;;;12.00;4.90;;;;;;;14.56;64.34;100968.09;4993312;28;20130;-63
2021/10/22 07:48:51;;;;;;;7.77;3.27;;;;;;;14.93;63.90;100975.81;4988159;28;20375;-63
2021/10/22 07:51:18;;;;;;;7.90;3.83;;;;;;;15.36;63.34;100981.47;4992683;28;20137;-64
2021/10/22 07:53:45;;;;;;;7.27;2.90;;;;;;;15.65;62.98;100974.84;4988822;28;20085;-62
2021/10/22 07:56:12;;;;;;;9.13;3.43;;;;;;;15.92;62.50;100987.44;4992732;28;20586;-62
2021/10/22 07:58:38;;;;;;;4.37;2.47;;;;;;;16.18;61.77;100988.69;4986405;28;20138;-62
2021/10/22 08:01:05;;;;;;;5.80;3.47;;;;;;;16.25;61.43;100986.31;4980459;28;20046;-61
2021/10/22 08:03:33;;;;;;;12.13;4.13;;;;;;;16.26;61.39;100989.97;4985252;28;20125;-63
2021/10/22 08:06:02;;;;;;;11.18;3.47;;;;;;;16.43;61.34;100997.84;4993675;28;20069;-62
2021/10/22 08:08:30;;;;;;;9.02;3.35;;;;;;;16.66;60.70;100990.38;4988923;28;20511;-62
2021/10/22 08:10:57;;;;;;;8.52;3.42;;;;;;;17.09;60.04;101013.53;4985103;28;20042;-62
2021/10/22 08:13:24;;;;;;;8.98;3.25;;;;;;;17.46;59.48;101011.63;4990168;28;20134;-63
2021/10/22 08:15:51;;;;;;;7.75;3.88;;;;;;;17.68;59.04;101019.34;4995950;28;20480;-62
2021/10/22 08:18:18;;;;;;;7.72;3.70;;;;;;;18.00;58.27;101009.84;4984631;28;20066;-62
2021/10/22 08:23:21;;;;;;;8.10;3.90;;;;;;;18.99;56.57;100985.22;4974892;28;20078;-62
2021/10/22 08:25:49;;;;;;;8.18;4.07;;;;;;;19.74;55.34;101010.75;4989391;28;20085;-62
2021/10/22 08:28:18;;;;;;;9.73;4.68;;;;;;;20.36;54.57;101019.75;4989686;28;20070;-60
2021/10/22 08:30:46;;;;;;;14.77;5.05;;;;;;;21.01;53.30;101025.47;4981437;28;20562;-67
2021/10/22 08:33:14;;;;;;;13.77;4.68;;;;;;;20.82;52.12;100903.84;4986373;28;20050;-69
2021/10/22 08:35:41;;;;;;;7.68;4.22;;;;;;;22.11;51.73;101034.03;4986279;28;20089;-67
2021/10/22 08:38:09;;;;;;;7.10;3.92;;;;;;;22.39;51.09;101035.19;4987768;28;20138;-65
2021/10/22 08:40:37;;;;;;;8.60;5.03;;;;;;;22.69;50.09;100992.34;4985019;28;20053;-67
2021/10/22 08:43:04;;;;;;;7.78;4.22;;;;;;;23.61;49.14;101036.59;4989077;28;20149;-63
2021/10/22 08:45:32;;;;;;;6.72;3.55;;;;;;;24.29;47.27;101019.59;4990476;28;20498;-67
2021/10/22 08:48:05;;;;;;;7.50;3.60;;;;;;;24.96;46.24;101033.34;4991246;28;20130;-66
2021/10/22 08:50:32;;;;;;;6.50;3.00;;;;;;;25.41;44.84;101029.22;4989297;28;20130;-68
2021/10/22 08:52:59;;;;;;;5.25;3.08;;;;;;;25.65;43.94;101051.06;4987309;28;20076;-66
2021/10/22 08:55:26;;;;;;;7.57;2.85;;;;;;;25.57;43.14;101043.50;4985466;28;20078;-66
2021/10/22 08:57:52;;;;;;;7.55;2.58;;;;;;;25.44;42.95;101042.78;4984283;28;20047;-72
2021/10/22 09:00:24;;;;;;;4.60;3.40;;;;;;;25.90;42.09;101028.78;4981150;28;20500;-80
2021/10/22 09:02:52;;;;;;;5.97;3.15;;;;;;;26.44;40.69;101033.66;4983168;28;20058;-76
2021/10/22 09:05:24;;;;;;;10.02;4.13;;;;;;;26.44;40.58;101020.16;4992141;28;20045;-76
2021/10/22 09:07:58;;;;;;;7.18;3.65;;;;;;;26.47;40.04;101027.22;4989210;28;20400;-76
2021/10/22 09:10:30;;;;;;;9.15;4.68;;;;;;;26.55;39.89;101017.53;4979645;28;20114;-74
2021/10/22 09:13:03;;;;;;;11.20;4.47;;;;;;;26.92;39.04;101022.75;4975769;28;20157;-68
2021/10/22 09:15:37;;;;;;;10.02;4.35;;;;;;;27.40;38.57;101021.19;4979554;28;20134;-79
2021/10/22 09:18:18;;;;;;;9.15;4.10;;;;;;;27.93;38.17;101019.56;4975271;28;20550;-68
2021/10/22 09:20:49;;;;;;;9.70;3.97;;;;;;;28.43;37.15;101026.81;4981658;28;20055;-68
2021/10/22 09:23:29;;;;;;;6.40;4.28;;;;;;;28.81;35.82;101024.81;4981895;28;20074;-66
2021/10/22 09:26:15;;;;;;;7.07;4.50;;;;;;;29.01;36.61;101020.53;4984366;28;20447;-67
2021/10/22 09:28:42;;;;;;;6.13;4.20;;;;;;;29.41;35.07;101015.97;4979520;28;20407;-67
2021/10/22 09:31:10;;;;;;;5.53;3.72;;;;;;;29.78;33.98;101032.31;4984809;28;20478;-66
2021/10/22 09:34:01;;;;;;;7.07;4.85;;;;;;;29.94;34.85;101038.56;4987378;28;20469;-67
2021/10/22 09:36:36;;;;;;;5.40;3.65;;;;;;;30.25;33.78;101021.88;4982966;28;20074;-66
2021/10/22 09:39:23;;;;;;;5.43;3.85;;;;;;;30.42;32.57;101043.38;4981341;28;20445;-67
2021/10/22 09:41:58;;;;;;;7.55;4.63;;;;;;;30.47;32.93;101034.34;4979229;28;20406;-68
2021/10/22 09:44:30;;;;;;;7.70;3.95;;;;;;;30.76;32.57;101035.28;4982820;28;20062;-68
2021/10/22 09:47:20;;;;;;;10.02;4.80;;;;;;;30.86;33.29;101046.03;4980945;28;20133;-67
2021/10/22 09:49:52;;;;;;;12.02;6.03;;;;;;;31.33;31.95;101044.06;4975536;28;20081;-68
2021/10/22 09:52:27;;;;;;;8.50;5.43;;;;;;;31.52;31.29;101036.22;4979315;28;20101;-67
2021/10/22 09:55:11;;;;;;;15.15;4.65;;;;;;;31.77;31.52;101034.16;4980908;28;20137;-67
2021/10/22 09:57:39;;;;;;;8.77;5.07;;;;;;;32.40;30.33;101045.16;4988723;28;20130;-66
2021/10/22 10:00:10;;;;;;;7.03;4.32;;;;;;;32.83;29.50;101040.00;4981199;28;20082;-66
2021/10/22 10:02:42;;;;;;;6.60;4.30;;;;;;;33.13;28.98;101033.66;4978079;28;20129;-67
2021/10/22 10:05:12;;;;;;;8.63;5.25;;;;;;;33.23;28.70;101026.97;4988536;28;20065;-66
2021/10/22 10:07:44;;;;;;;12.23;5.43;;;;;;;33.37;28.29;101028.06;4990450;28;20097;-67
2021/10/22 10:10:12;;;;;;;7.78;4.75;;;;;;;33.37;27.70;101019.38;4988535;28;20478;-67
2021/10/22 10:12:41;;;;;;;6.22;4.32;;;;;;;33.54;27.85;101029.19;4993782;28;20133;-67
2021/10/22 10:15:10;;;;;;;7.55;4.80;;;;;;;33.65;27.59;101027.03;4986360;28;20097;-66
2021/10/22 10:17:41;;;;;;;;;;;;;;;33.21;30.83;101026.56;4991105;28;20498;-67
2021/10/22 10:20:10;;;;;;;13.13;5.38;;;;;;;33.62;28.29;101004.72;4990433;28;20012;-66
2021/10/22 10:22:42;;;;;;;7.35;3.90;;;;;;;33.86;27.16;101029.72;4992159;28;20149;-66
2021/10/22 10:25:11;;;;;;;8.68;3.55;;;;;;;33.65;27.12;101021.25;4983296;28;20150;-65
2021/10/22 10:27:46;;;;;;;;;;;;;;;33.12;30.32;101014.63;4993175;28;20078;-65
2021/10/22 10:30:27;;;;;;;7.93;4.60;;;;;;;33.62;28.41;101005.56;4990644;28;20009;-65
2021/10/22 10:32:54;;;;;;;8.63;4.90;;;;;;;33.85;27.26;100999.09;4986176;28;20130;-65
2021/10/22 10:35:22;;;;;;;17.38;6.38;;;;;;;33.89;26.49;100991.19;4986734;28;20047;-66
2021/10/22 10:37:53;;;;;;;7.60;5.40;;;;;;;34.12;26.31;100995.50;4986891;28;20133;-65
2021/10/22 10:40:27;;;;;;;19.40;6.97;;;;;;;33.92;26.09;100960.53;4983390;28;20125;-66
2021/10/22 10:43:18;;;;;;;12.23;4.85;;;;;;;34.27;25.77;100999.06;4982979;28;20141;-66
2021/10/22 10:45:46;;;;;;;9.48;4.88;;;;;;;34.32;25.52;100992.78;4981794;28;20082;-66
2021/10/22 10:48:17;;;;;;;8.00;4.95;;;;;;;34.48;25.28;101010.38;4986318;28;20051;-66
2021/10/22 10:50:55;;;;;;;9.70;5.38;;;;;;;34.62;25.23;101001.50;4989763;28;20433;-66
2021/10/22 10:53:38;;;;;;;6.90;4.90;;;;;;;34.69;25.56;101006.38;4983669;28;20364;-66
2021/10/22 10:56:18;;;;;;;11.18;4.97;;;;;;;34.87;24.70;101018.56;4987919;28;20325;-66
2021/10/22 10:58:46;;;;;;;8.35;5.95;;;;;;;34.93;24.58;101018.06;4980238;28;20050;-65
2021/10/22 11:01:28;;;;;;;8.32;5.70;;;;;;;35.06;24.84;101011.25;4978805;28;20055;-65
2021/10/22 11:03:58;;;;;;;9.00;4.90;;;;;;;35.29;24.24;101013.38;4989720;28;20104;-66
2021/10/22 11:06:35;;;;;;;;;;;;;;;35.09;26.72;101007.47;4978387;28;20057;-66
2021/10/22 11:09:04;;;;;;;6.85;4.35;;;;;;;35.74;23.90;101015.91;4982438;28;19930;-67
2021/10/22 11:11:34;;;;;;;9.13;5.70;;;;;;;35.98;24.23;100999.25;4991615;28;20050;-67
2021/10/22 11:14:07;;;;;;;6.28;4.47;;;;;;;36.41;22.96;101012.97;4985146;28;20066;-67
2021/10/22 11:16:41;;;;;;;7.50;4.43;;;;;;;36.58;22.77;101010.91;4982953;28;20177;-67
2021/10/22 11:19:23;;;;;;;7.95;4.00;;;;;;;36.77;22.35;101007.16;4988345;28;20207;-67
2021/10/22 11:22:02;;;;;;;6.07;4.63;;;;;;;37.03;22.24;101003.69;4987289;28;20150;-66
2021/10/22 11:24:34;;;;;;;6.50;4.47;;;;;;;37.41;21.60;101004.00;4989392;28;20097;-65
2021/10/22 11:27:09;;;;;;;8.15;4.30;;;;;;;37.58;21.04;101013.56;4987943;28;20047;-66
2021/10/22 11:29:48;;;;;;;6.40;3.05;;;;;;;37.53;22.13;100991.63;4971969;28;20156;-66
2021/10/22 11:32:19;;;;;;;5.97;3.15;;;;;;;37.69;21.25;100987.88;4990085;28;20129;-67
2021/10/22 11:34:53;;;;;;;4.97;3.67;;;;;;;38.13;21.18;100997.06;4985130;28;20125;-65
2021/10/22 11:37:22;;;;;;;5.45;3.35;;;;;;;38.12;20.91;100995.41;4984691;28;20050;-65
2021/10/22 11:39:51;;;;;;;5.57;3.40;;;;;;;38.06;20.33;100988.53;4985285;28;20060;-65
2021/10/22 11:42:19;;;;;;;5.75;3.42;;;;;;;38.14;20.30;100998.69;4982294;28;20129;-65